sensor_id;sensor_type;location;lat;lon;timestamp;temperature;humidity
53114;DHT22;39009;53.166;6.232;2022-09-28T00:01:46;7.10;99.90
53114;DHT22;39009;53.166;6.232;2022-09-28T00:04:11;7.10;99.90
53114;DHT22;39009;53.166;6.232;2022-09-28T00:06:37;7.10;99.90
53114;DHT22;39009;53.166;6.232;2022-09-28T00:09:03;7.10;99.90
53114;DHT22;39009;53.166;6.232;2022-09-28T00:11:29;7.10;99.90
53114;DHT22;39009;53.166;6.232;2022-09-28T00:13:56;7.10;99.90
53114;DHT22;39009;53.166;6.232;2022-09-28T00:16:24;7.10;99.90
53114;DHT22;39009;53.166;6.232;2022-09-28T00:18:50;7.10;99.90
53114;DHT22;39009;53.166;6.232;2022-09-28T00:21:17;7.10;99.90
53114;DHT22;39009;53.166;6.232;2022-09-28T00:23:43;7.00;99.90
53114;DHT22;39009;53.166;6.232;2022-09-28T00:26:28;7.10;99.90
53114;DHT22;39009;53.166;6.232;2022-09-28T00:28:55;7.10;99.90
53114;DHT22;39009;53.166;6.232;2022-09-28T00:31:22;7.10;99.90
53114;DHT22;39009;53.166;6.232;2022-09-28T00:33:50;7.00;99.90
53114;DHT22;39009;53.166;6.232;2022-09-28T00:36:16;7.10;99.90
53114;DHT22;39009;53.166;6.232;2022-09-28T00:38:41;7.10;99.90
53114;DHT22;39009;53.166;6.232;2022-09-28T00:41:08;7.10;99.90
53114;DHT22;39009;53.166;6.232;2022-09-28T00:43:34;7.00;99.90
53114;DHT22;39009;53.166;6.232;2022-09-28T00:46:01;7.10;99.90
53114;DHT22;39009;53.166;6.232;2022-09-28T00:48:30;7.10;99.90
53114;DHT22;39009;53.166;6.232;2022-09-28T00:50:57;7.10;99.90
53114;DHT22;39009;53.166;6.232;2022-09-28T00:53:24;7.10;99.90
53114;DHT22;39009;53.166;6.232;2022-09-28T00:55:51;7.10;99.90
53114;DHT22;39009;53.166;6.232;2022-09-28T00:58:24;7.10;99.90
53114;DHT22;39009;53.166;6.232;2022-09-28T01:00:52;7.10;99.90
53114;DHT22;39009;53.166;6.232;2022-09-28T01:03:19;7.10;99.90
53114;DHT22;39009;53.166;6.232;2022-09-28T01:05:44;7.10;99.90
53114;DHT22;39009;53.166;6.232;2022-09-28T01:08:11;7.00;99.90
53114;DHT22;39009;53.166;6.232;2022-09-28T01:10:38;7.00;99.90
53114;DHT22;39009;53.166;6.232;2022-09-28T01:13:05;7.00;99.90
53114;DHT22;39009;53.166;6.232;2022-09-28T01:15:30;7.00;99.90
53114;DHT22;39009;53.166;6.232;2022-09-28T01:20:31;7.10;99.90
53114;DHT22;39009;53.166;6.232;2022-09-28T01:25:30;7.10;99.90
53114;DHT22;39009;53.166;6.232;2022-09-28T01:28:03;7.10;99.90
53114;DHT22;39009;53.166;6.232;2022-09-28T01:30:29;7.10;99.90
53114;DHT22;39009;53.166;6.232;2022-09-28T01:33:04;7.10;99.90
53114;DHT22;39009;53.166;6.232;2022-09-28T01:35:35;7.10;99.90
53114;DHT22;39009;53.166;6.232;2022-09-28T01:38:03;7.10;99.90
53114;DHT22;39009;53.166;6.232;2022-09-28T01:40:30;7.10;99.90
53114;DHT22;39009;53.166;6.232;2022-09-28T01:42:58;7.10;99.90
53114;DHT22;39009;53.166;6.232;2022-09-28T01:45:29;7.10;99.90
53114;DHT22;39009;53.166;6.232;2022-09-28T01:47:57;7.00;99.90
53114;DHT22;39009;53.166;6.232;2022-09-28T01:50:24;7.10;99.90
53114;DHT22;39009;53.166;6.232;2022-09-28T01:52:54;7.00;99.90
53114;DHT22;39009;53.166;6.232;2022-09-28T01:55:30;7.10;99.90
53114;DHT22;39009;53.166;6.232;2022-09-28T01:58:00;7.10;99.90
53114;DHT22;39009;53.166;6.232;2022-09-28T02:00:27;7.10;99.90
53114;DHT22;39009;53.166;6.232;2022-09-28T02:02:56;7.10;99.90
53114;DHT22;39009;53.166;6.232;2022-09-28T02:05:28;7.10;99.90
53114;DHT22;39009;53.166;6.232;2022-09-28T02:10:21;7.10;99.90
53114;DHT22;39009;53.166;6.232;2022-09-28T02:12:56;7.00;99.90
53114;DHT22;39009;53.166;6.232;2022-09-28T02:15:23;7.00;99.90
53114;DHT22;39009;53.166;6.232;2022-09-28T02:17:51;7.00;99.90
53114;DHT22;39009;53.166;6.232;2022-09-28T02:20:17;7.10;99.90
53114;DHT22;39009;53.166;6.232;2022-09-28T02:22:46;7.00;99.90
53114;DHT22;39009;53.166;6.232;2022-09-28T02:27:51;7.10;99.90
53114;DHT22;39009;53.166;6.232;2022-09-28T02:30:19;7.10;99.90
53114;DHT22;39009;53.166;6.232;2022-09-28T02:32:45;7.10;99.90
53114;DHT22;39009;53.166;6.232;2022-09-28T02:35:12;7.10;99.90
53114;DHT22;39009;53.166;6.232;2022-09-28T02:37:38;7.10;99.90
53114;DHT22;39009;53.166;6.232;2022-09-28T02:40:17;7.20;99.90
53114;DHT22;39009;53.166;6.232;2022-09-28T02:42:52;7.20;99.90
53114;DHT22;39009;53.166;6.232;2022-09-28T02:45:24;7.10;99.90
53114;DHT22;39009;53.166;6.232;2022-09-28T02:47:59;7.10;99.90
53114;DHT22;39009;53.166;6.232;2022-09-28T02:55:32;7.00;99.90
53114;DHT22;39009;53.166;6.232;2022-09-28T02:58:13;6.90;99.90
53114;DHT22;39009;53.166;6.232;2022-09-28T03:00:46;6.90;99.90
53114;DHT22;39009;53.166;6.232;2022-09-28T03:03:19;6.90;99.90
53114;DHT22;39009;53.166;6.232;2022-09-28T03:05:51;6.80;99.90
53114;DHT22;39009;53.166;6.232;2022-09-28T03:10:49;6.80;99.90
53114;DHT22;39009;53.166;6.232;2022-09-28T03:13:18;6.80;99.90
53114;DHT22;39009;53.166;6.232;2022-09-28T03:15:43;6.70;99.90
53114;DHT22;39009;53.166;6.232;2022-09-28T03:18:09;6.70;99.90
53114;DHT22;39009;53.166;6.232;2022-09-28T03:20:35;6.70;99.90
53114;DHT22;39009;53.166;6.232;2022-09-28T03:23:00;6.70;99.90
53114;DHT22;39009;53.166;6.232;2022-09-28T03:25:26;6.70;99.90
53114;DHT22;39009;53.166;6.232;2022-09-28T03:27:52;6.70;99.90
53114;DHT22;39009;53.166;6.232;2022-09-28T03:30:18;6.70;99.90
53114;DHT22;39009;53.166;6.232;2022-09-28T03:32:43;6.80;99.90
53114;DHT22;39009;53.166;6.232;2022-09-28T03:35:09;6.80;99.90
53114;DHT22;39009;53.166;6.232;2022-09-28T03:37:35;6.80;99.90
53114;DHT22;39009;53.166;6.232;2022-09-28T03:40:01;6.80;99.90
53114;DHT22;39009;53.166;6.232;2022-09-28T03:42:26;6.80;99.90
53114;DHT22;39009;53.166;6.232;2022-09-28T03:44:52;6.80;99.90
53114;DHT22;39009;53.166;6.232;2022-09-28T03:47:17;6.90;99.90
53114;DHT22;39009;53.166;6.232;2022-09-28T03:49:43;6.90;99.90
53114;DHT22;39009;53.166;6.232;2022-09-28T03:52:10;6.90;99.90
53114;DHT22;39009;53.166;6.232;2022-09-28T03:54:35;6.90;99.90
53114;DHT22;39009;53.166;6.232;2022-09-28T03:57:01;7.40;99.90
53114;DHT22;39009;53.166;6.232;2022-09-28T03:59:27;6.90;99.90
53114;DHT22;39009;53.166;6.232;2022-09-28T04:01:52;7.00;99.90
53114;DHT22;39009;53.166;6.232;2022-09-28T04:04:18;7.00;99.90
53114;DHT22;39009;53.166;6.232;2022-09-28T04:06:43;6.90;99.90
53114;DHT22;39009;53.166;6.232;2022-09-28T04:09:09;6.90;99.90
53114;DHT22;39009;53.166;6.232;2022-09-28T04:11:35;7.00;99.90
53114;DHT22;39009;53.166;6.232;2022-09-28T04:14:00;6.90;99.90
53114;DHT22;39009;53.166;6.232;2022-09-28T04:16:27;7.00;99.90
53114;DHT22;39009;53.166;6.232;2022-09-28T04:18:52;7.00;99.90
53114;DHT22;39009;53.166;6.232;2022-09-28T04:21:18;7.00;99.90
53114;DHT22;39009;53.166;6.232;2022-09-28T04:23:44;7.10;99.90
53114;DHT22;39009;53.166;6.232;2022-09-28T04:26:14;7.00;99.90
53114;DHT22;39009;53.166;6.232;2022-09-28T04:28:41;7.10;99.90
53114;DHT22;39009;53.166;6.232;2022-09-28T04:31:26;7.10;99.90
53114;DHT22;39009;53.166;6.232;2022-09-28T04:33:51;7.10;99.90
53114;DHT22;39009;53.166;6.232;2022-09-28T04:36:18;7.10;99.90
53114;DHT22;39009;53.166;6.232;2022-09-28T04:38:44;7.10;99.90
53114;DHT22;39009;53.166;6.232;2022-09-28T04:41:09;7.10;99.90
53114;DHT22;39009;53.166;6.232;2022-09-28T04:43:36;7.10;99.90
53114;DHT22;39009;53.166;6.232;2022-09-28T04:46:02;7.10;99.90
53114;DHT22;39009;53.166;6.232;2022-09-28T04:48:30;7.10;99.90
53114;DHT22;39009;53.166;6.232;2022-09-28T04:50:56;7.10;99.90
53114;DHT22;39009;53.166;6.232;2022-09-28T04:53:22;7.10;99.90
53114;DHT22;39009;53.166;6.232;2022-09-28T04:58:21;7.20;99.90
53114;DHT22;39009;53.166;6.232;2022-09-28T05:00:47;7.20;99.90
53114;DHT22;39009;53.166;6.232;2022-09-28T05:03:16;7.40;99.90
53114;DHT22;39009;53.166;6.232;2022-09-28T05:05:43;7.20;99.90
53114;DHT22;39009;53.166;6.232;2022-09-28T05:08:09;7.20;99.90
53114;DHT22;39009;53.166;6.232;2022-09-28T05:10:35;7.20;99.90
53114;DHT22;39009;53.166;6.232;2022-09-28T05:13:00;7.20;99.90
53114;DHT22;39009;53.166;6.232;2022-09-28T05:15:26;7.30;99.90
53114;DHT22;39009;53.166;6.232;2022-09-28T05:17:51;7.30;99.90
53114;DHT22;39009;53.166;6.232;2022-09-28T05:20:17;7.30;99.90
53114;DHT22;39009;53.166;6.232;2022-09-28T05:22:43;7.30;99.90
53114;DHT22;39009;53.166;6.232;2022-09-28T05:25:08;7.30;99.90
53114;DHT22;39009;53.166;6.232;2022-09-28T05:27:34;7.20;99.90
53114;DHT22;39009;53.166;6.232;2022-09-28T05:29:59;7.20;99.90
53114;DHT22;39009;53.166;6.232;2022-09-28T05:32:25;7.20;99.90
53114;DHT22;39009;53.166;6.232;2022-09-28T05:34:50;7.20;99.90
53114;DHT22;39009;53.166;6.232;2022-09-28T05:37:16;7.10;99.90
53114;DHT22;39009;53.166;6.232;2022-09-28T05:39:41;7.10;99.90
53114;DHT22;39009;53.166;6.232;2022-09-28T05:42:07;7.10;99.90
53114;DHT22;39009;53.166;6.232;2022-09-28T05:44:32;7.10;99.90
53114;DHT22;39009;53.166;6.232;2022-09-28T05:46:58;7.10;99.90
53114;DHT22;39009;53.166;6.232;2022-09-28T05:49:24;7.10;99.90
53114;DHT22;39009;53.166;6.232;2022-09-28T05:51:49;7.10;99.90
53114;DHT22;39009;53.166;6.232;2022-09-28T05:54:16;7.10;99.90
53114;DHT22;39009;53.166;6.232;2022-09-28T05:56:42;7.10;99.90
53114;DHT22;39009;53.166;6.232;2022-09-28T05:59:08;7.10;99.90
53114;DHT22;39009;53.166;6.232;2022-09-28T06:01:33;7.10;99.90
53114;DHT22;39009;53.166;6.232;2022-09-28T06:03:59;7.20;99.90
53114;DHT22;39009;53.166;6.232;2022-09-28T06:06:24;7.20;99.90
53114;DHT22;39009;53.166;6.232;2022-09-28T06:08:50;7.20;99.90
53114;DHT22;39009;53.166;6.232;2022-09-28T06:11:16;7.30;99.90
53114;DHT22;39009;53.166;6.232;2022-09-28T06:13:41;7.30;99.90
53114;DHT22;39009;53.166;6.232;2022-09-28T06:16:07;7.40;99.90
53114;DHT22;39009;53.166;6.232;2022-09-28T06:18:32;7.40;99.90
53114;DHT22;39009;53.166;6.232;2022-09-28T06:20:58;7.40;99.90
53114;DHT22;39009;53.166;6.232;2022-09-28T06:23:24;7.50;99.90
53114;DHT22;39009;53.166;6.232;2022-09-28T06:25:49;7.50;99.90
53114;DHT22;39009;53.166;6.232;2022-09-28T06:28:15;7.50;99.90
53114;DHT22;39009;53.166;6.232;2022-09-28T06:30:41;7.60;99.90
53114;DHT22;39009;53.166;6.232;2022-09-28T06:33:08;7.60;99.90
53114;DHT22;39009;53.166;6.232;2022-09-28T06:35:34;7.60;99.90
53114;DHT22;39009;53.166;6.232;2022-09-28T06:38:00;7.70;99.90
53114;DHT22;39009;53.166;6.232;2022-09-28T06:40:26;7.70;99.90
53114;DHT22;39009;53.166;6.232;2022-09-28T06:42:54;7.70;99.90
53114;DHT22;39009;53.166;6.232;2022-09-28T06:45:20;7.80;99.90
53114;DHT22;39009;53.166;6.232;2022-09-28T06:47:56;7.80;99.90
53114;DHT22;39009;53.166;6.232;2022-09-28T06:50:23;8.00;99.90
53114;DHT22;39009;53.166;6.232;2022-09-28T06:52:52;8.10;99.90
53114;DHT22;39009;53.166;6.232;2022-09-28T06:55:18;8.60;99.90
53114;DHT22;39009;53.166;6.232;2022-09-28T06:57:44;9.30;99.90
53114;DHT22;39009;53.166;6.232;2022-09-28T07:00:10;9.50;99.90
53114;DHT22;39009;53.166;6.232;2022-09-28T07:02:35;9.50;99.90
53114;DHT22;39009;53.166;6.232;2022-09-28T07:05:01;9.40;99.90
53114;DHT22;39009;53.166;6.232;2022-09-28T07:07:28;9.80;99.90
53114;DHT22;39009;53.166;6.232;2022-09-28T07:09:55;10.80;99.90
53114;DHT22;39009;53.166;6.232;2022-09-28T07:12:21;11.80;99.90
53114;DHT22;39009;53.166;6.232;2022-09-28T07:14:48;12.60;99.90
53114;DHT22;39009;53.166;6.232;2022-09-28T07:17:14;13.20;99.90
53114;DHT22;39009;53.166;6.232;2022-09-28T07:19:40;13.90;99.90
53114;DHT22;39009;53.166;6.232;2022-09-28T07:22:05;14.40;99.90
53114;DHT22;39009;53.166;6.232;2022-09-28T07:24:31;14.90;99.90
53114;DHT22;39009;53.166;6.232;2022-09-28T07:26:56;15.50;99.90
53114;DHT22;39009;53.166;6.232;2022-09-28T07:29:22;16.10;99.90
53114;DHT22;39009;53.166;6.232;2022-09-28T07:31:47;16.60;99.90
53114;DHT22;39009;53.166;6.232;2022-09-28T07:34:13;17.00;99.90
53114;DHT22;39009;53.166;6.232;2022-09-28T07:36:39;17.40;99.90
53114;DHT22;39009;53.166;6.232;2022-09-28T07:39:04;17.90;99.90
53114;DHT22;39009;53.166;6.232;2022-09-28T07:41:30;18.30;99.90
53114;DHT22;39009;53.166;6.232;2022-09-28T07:43:58;18.70;99.90
53114;DHT22;39009;53.166;6.232;2022-09-28T07:46:30;18.80;99.90
53114;DHT22;39009;53.166;6.232;2022-09-28T07:48:55;19.20;99.90
53114;DHT22;39009;53.166;6.232;2022-09-28T07:51:21;19.30;99.90
53114;DHT22;39009;53.166;6.232;2022-09-28T07:53:47;19.50;99.90
53114;DHT22;39009;53.166;6.232;2022-09-28T07:56:12;19.50;99.90
53114;DHT22;39009;53.166;6.232;2022-09-28T07:58:41;19.60;99.90
53114;DHT22;39009;53.166;6.232;2022-09-28T08:01:09;19.50;99.90
53114;DHT22;39009;53.166;6.232;2022-09-28T08:03:34;19.50;99.90
53114;DHT22;39009;53.166;6.232;2022-09-28T08:06:01;19.50;99.90
53114;DHT22;39009;53.166;6.232;2022-09-28T08:08:27;19.60;99.90
53114;DHT22;39009;53.166;6.232;2022-09-28T08:10:55;19.60;99.90
53114;DHT22;39009;53.166;6.232;2022-09-28T08:13:21;19.50;99.90
53114;DHT22;39009;53.166;6.232;2022-09-28T08:15:48;19.10;99.90
53114;DHT22;39009;53.166;6.232;2022-09-28T08:18:16;18.50;99.90
53114;DHT22;39009;53.166;6.232;2022-09-28T08:20:42;17.70;99.90
53114;DHT22;39009;53.166;6.232;2022-09-28T08:23:26;16.90;99.90
53114;DHT22;39009;53.166;6.232;2022-09-28T08:25:52;16.00;99.90
53114;DHT22;39009;53.166;6.232;2022-09-28T08:28:18;15.60;99.90
53114;DHT22;39009;53.166;6.232;2022-09-28T08:30:44;15.70;99.90
53114;DHT22;39009;53.166;6.232;2022-09-28T08:33:11;15.80;99.90
53114;DHT22;39009;53.166;6.232;2022-09-28T08:35:36;15.60;99.90
53114;DHT22;39009;53.166;6.232;2022-09-28T08:38:03;15.20;99.90
53114;DHT22;39009;53.166;6.232;2022-09-28T08:40:28;14.70;99.90
53114;DHT22;39009;53.166;6.232;2022-09-28T08:43:00;14.50;99.90
53114;DHT22;39009;53.166;6.232;2022-09-28T08:45:27;14.50;99.90
53114;DHT22;39009;53.166;6.232;2022-09-28T08:48:02;14.60;99.90
53114;DHT22;39009;53.166;6.232;2022-09-28T08:50:49;14.40;99.90
53114;DHT22;39009;53.166;6.232;2022-09-28T08:53:34;14.40;99.90
53114;DHT22;39009;53.166;6.232;2022-09-28T08:56:03;14.20;99.90
53114;DHT22;39009;53.166;6.232;2022-09-28T08:58:31;13.80;99.90
53114;DHT22;39009;53.166;6.232;2022-09-28T09:00:58;13.40;99.90
53114;DHT22;39009;53.166;6.232;2022-09-28T09:03:29;13.10;99.90
53114;DHT22;39009;53.166;6.232;2022-09-28T09:11:22;12.80;99.90
53114;DHT22;39009;53.166;6.232;2022-09-28T09:14:06;12.90;99.90
53114;DHT22;39009;53.166;6.232;2022-09-28T09:16:38;12.80;99.90
53114;DHT22;39009;53.166;6.232;2022-09-28T09:24:02;12.70;99.90
53114;DHT22;39009;53.166;6.232;2022-09-28T09:26:34;12.70;99.90
53114;DHT22;39009;53.166;6.232;2022-09-28T09:29:05;12.70;99.90
53114;DHT22;39009;53.166;6.232;2022-09-28T09:31:47;12.80;99.90
53114;DHT22;39009;53.166;6.232;2022-09-28T09:41:45;12.90;99.90
53114;DHT22;39009;53.166;6.232;2022-09-28T09:46:44;13.70;99.90
53114;DHT22;39009;53.166;6.232;2022-09-28T09:49:20;13.90;99.90
53114;DHT22;39009;53.166;6.232;2022-09-28T09:51:54;13.90;99.90
53114;DHT22;39009;53.166;6.232;2022-09-28T09:54:29;13.90;99.90
53114;DHT22;39009;53.166;6.232;2022-09-28T09:56:58;14.00;99.90
53114;DHT22;39009;53.166;6.232;2022-09-28T09:59:27;14.00;99.90
53114;DHT22;39009;53.166;6.232;2022-09-28T10:01:56;14.10;99.90
53114;DHT22;39009;53.166;6.232;2022-09-28T10:04:23;14.00;99.90
53114;DHT22;39009;53.166;6.232;2022-09-28T10:06:51;14.00;99.90
53114;DHT22;39009;53.166;6.232;2022-09-28T10:09:22;13.80;99.90
53114;DHT22;39009;53.166;6.232;2022-09-28T10:11:49;13.70;99.90
53114;DHT22;39009;53.166;6.232;2022-09-28T10:14:18;13.80;99.90
53114;DHT22;39009;53.166;6.232;2022-09-28T10:16:48;13.90;99.90
53114;DHT22;39009;53.166;6.232;2022-09-28T10:19:14;13.90;99.90
53114;DHT22;39009;53.166;6.232;2022-09-28T10:21:40;13.90;99.90
53114;DHT22;39009;53.166;6.232;2022-09-28T10:24:10;13.90;99.90
53114;DHT22;39009;53.166;6.232;2022-09-28T10:26:39;13.90;99.90
53114;DHT22;39009;53.166;6.232;2022-09-28T10:29:13;13.80;99.90
53114;DHT22;39009;53.166;6.232;2022-09-28T10:31:41;13.60;99.90
53114;DHT22;39009;53.166;6.232;2022-09-28T10:34:07;13.60;99.90
53114;DHT22;39009;53.166;6.232;2022-09-28T10:36:45;13.70;99.90
53114;DHT22;39009;53.166;6.232;2022-09-28T10:41:50;13.90;99.90
53114;DHT22;39009;53.166;6.232;2022-09-28T10:44:16;14.00;99.90
53114;DHT22;39009;53.166;6.232;2022-09-28T10:46:43;14.10;99.90
53114;DHT22;39009;53.166;6.232;2022-09-28T10:49:17;14.20;99.90
53114;DHT22;39009;53.166;6.232;2022-09-28T10:51:43;14.30;99.90
53114;DHT22;39009;53.166;6.232;2022-09-28T10:54:13;14.40;99.90
53114;DHT22;39009;53.166;6.232;2022-09-28T10:56:39;14.30;99.90
53114;DHT22;39009;53.166;6.232;2022-09-28T11:04:21;14.20;99.90
53114;DHT22;39009;53.166;6.232;2022-09-28T11:06:48;14.10;99.90
53114;DHT22;39009;53.166;6.232;2022-09-28T11:09:23;14.00;99.90
53114;DHT22;39009;53.166;6.232;2022-09-28T11:11:50;13.90;99.90
53114;DHT22;39009;53.166;6.232;2022-09-28T11:14:33;14.00;99.90
53114;DHT22;39009;53.166;6.232;2022-09-28T11:17:13;14.00;99.90
53114;DHT22;39009;53.166;6.232;2022-09-28T11:19:39;13.90;99.90
53114;DHT22;39009;53.166;6.232;2022-09-28T11:22:22;13.90;99.90
53114;DHT22;39009;53.166;6.232;2022-09-28T11:24:48;13.80;99.90
53114;DHT22;39009;53.166;6.232;2022-09-28T11:27:19;13.60;99.90
53114;DHT22;39009;53.166;6.232;2022-09-28T11:29:56;13.50;99.90
53114;DHT22;39009;53.166;6.232;2022-09-28T11:32:24;13.40;99.90
53114;DHT22;39009;53.166;6.232;2022-09-28T11:34:50;13.30;99.90
53114;DHT22;39009;53.166;6.232;2022-09-28T11:37:25;13.20;99.90
53114;DHT22;39009;53.166;6.232;2022-09-28T11:42:46;13.10;99.90
53114;DHT22;39009;53.166;6.232;2022-09-28T11:47:48;13.10;99.90
53114;DHT22;39009;53.166;6.232;2022-09-28T11:50:17;13.30;99.90
53114;DHT22;39009;53.166;6.232;2022-09-28T11:52:47;13.50;99.90
53114;DHT22;39009;53.166;6.232;2022-09-28T11:57:47;13.80;99.90
53114;DHT22;39009;53.166;6.232;2022-09-28T12:00:18;13.80;99.90
53114;DHT22;39009;53.166;6.232;2022-09-28T12:02:47;13.80;99.90
53114;DHT22;39009;53.166;6.232;2022-09-28T12:05:27;13.80;99.90
53114;DHT22;39009;53.166;6.232;2022-09-28T12:07:55;13.80;99.90
53114;DHT22;39009;53.166;6.232;2022-09-28T12:14:47;14.40;99.90
53114;DHT22;39009;53.166;6.232;2022-09-28T12:17:19;13.80;99.90
53114;DHT22;39009;53.166;6.232;2022-09-28T12:19:48;13.90;99.90
53114;DHT22;39009;53.166;6.232;2022-09-28T12:22:18;13.90;99.90
53114;DHT22;39009;53.166;6.232;2022-09-28T12:24:46;13.80;99.90
53114;DHT22;39009;53.166;6.232;2022-09-28T12:29:40;14.00;99.90
53114;DHT22;39009;53.166;6.232;2022-09-28T12:32:11;14.70;99.90
53114;DHT22;39009;53.166;6.232;2022-09-28T12:34:40;16.00;99.90
53114;DHT22;39009;53.166;6.232;2022-09-28T12:37:13;17.60;99.90
53114;DHT22;39009;53.166;6.232;2022-09-28T12:39:45;18.60;99.90
53114;DHT22;39009;53.166;6.232;2022-09-28T12:42:22;18.60;99.90
53114;DHT22;39009;53.166;6.232;2022-09-28T12:47:35;17.80;99.90
53114;DHT22;39009;53.166;6.232;2022-09-28T12:57:33;16.40;99.90
53114;DHT22;39009;53.166;6.232;2022-09-28T13:10:17;16.40;99.90
53114;DHT22;39009;53.166;6.232;2022-09-28T13:12:51;16.40;99.90
53114;DHT22;39009;53.166;6.232;2022-09-28T13:15:22;16.40;99.90
53114;DHT22;39009;53.166;6.232;2022-09-28T13:20:20;16.60;99.90
53114;DHT22;39009;53.166;6.232;2022-09-28T13:22:51;16.60;99.90
53114;DHT22;39009;53.166;6.232;2022-09-28T13:25:20;16.60;99.90
53114;DHT22;39009;53.166;6.232;2022-09-28T13:27:47;16.60;99.90
53114;DHT22;39009;53.166;6.232;2022-09-28T13:30:14;16.50;99.90
53114;DHT22;39009;53.166;6.232;2022-09-28T13:32:42;16.40;99.90
53114;DHT22;39009;53.166;6.232;2022-09-28T13:35:13;16.10;99.90
53114;DHT22;39009;53.166;6.232;2022-09-28T13:37:39;15.70;99.90
53114;DHT22;39009;53.166;6.232;2022-09-28T13:40:05;15.10;99.90
53114;DHT22;39009;53.166;6.232;2022-09-28T13:47:59;14.20;99.90
53114;DHT22;39009;53.166;6.232;2022-09-28T13:53:02;14.10;99.90
53114;DHT22;39009;53.166;6.232;2022-09-28T13:55:35;14.00;99.90
53114;DHT22;39009;53.166;6.232;2022-09-28T13:58:13;14.00;99.90
53114;DHT22;39009;53.166;6.232;2022-09-28T14:00:48;14.10;99.90
53114;DHT22;39009;53.166;6.232;2022-09-28T14:03:24;14.20;99.90
53114;DHT22;39009;53.166;6.232;2022-09-28T14:05:51;14.20;99.90
53114;DHT22;39009;53.166;6.232;2022-09-28T14:10:54;14.30;99.90
53114;DHT22;39009;53.166;6.232;2022-09-28T14:16:20;14.30;99.90
53114;DHT22;39009;53.166;6.232;2022-09-28T14:18:48;14.20;99.90
53114;DHT22;39009;53.166;6.232;2022-09-28T14:21:20;14.10;99.90
53114;DHT22;39009;53.166;6.232;2022-09-28T14:26:18;13.60;99.90
53114;DHT22;39009;53.166;6.232;2022-09-28T14:29:00;13.50;99.90
53114;DHT22;39009;53.166;6.232;2022-09-28T14:31:28;13.30;99.90
53114;DHT22;39009;53.166;6.232;2022-09-28T14:33:55;13.10;99.90
53114;DHT22;39009;53.166;6.232;2022-09-28T14:36:22;12.90;99.90
53114;DHT22;39009;53.166;6.232;2022-09-28T14:39:29;12.70;99.90
53114;DHT22;39009;53.166;6.232;2022-09-28T14:42:14;12.50;99.90
53114;DHT22;39009;53.166;6.232;2022-09-28T14:45:17;12.40;99.90
53114;DHT22;39009;53.166;6.232;2022-09-28T14:47:34;12.40;99.90
53114;DHT22;39009;53.166;6.232;2022-09-28T14:50:00;12.40;99.90
53114;DHT22;39009;53.166;6.232;2022-09-28T14:52:36;12.40;99.90
53114;DHT22;39009;53.166;6.232;2022-09-28T14:55:02;12.40;99.90
53114;DHT22;39009;53.166;6.232;2022-09-28T14:57:35;12.40;99.90
53114;DHT22;39009;53.166;6.232;2022-09-28T15:00:14;12.40;99.90
53114;DHT22;39009;53.166;6.232;2022-09-28T15:02:40;12.50;99.90
53114;DHT22;39009;53.166;6.232;2022-09-28T15:05:13;12.50;99.90
53114;DHT22;39009;53.166;6.232;2022-09-28T15:07:42;12.40;99.90
53114;DHT22;39009;53.166;6.232;2022-09-28T15:10:20;12.30;99.90
53114;DHT22;39009;53.166;6.232;2022-09-28T15:12:48;12.30;99.90
53114;DHT22;39009;53.166;6.232;2022-09-28T15:15:24;12.30;99.90
53114;DHT22;39009;53.166;6.232;2022-09-28T15:17:53;12.30;99.90
53114;DHT22;39009;53.166;6.232;2022-09-28T15:20:23;12.30;99.90
53114;DHT22;39009;53.166;6.232;2022-09-28T15:22:51;12.30;99.90
53114;DHT22;39009;53.166;6.232;2022-09-28T15:25:18;12.30;99.90
53114;DHT22;39009;53.166;6.232;2022-09-28T15:27:45;12.20;99.90
53114;DHT22;39009;53.166;6.232;2022-09-28T15:32:47;12.20;99.90
53114;DHT22;39009;53.166;6.232;2022-09-28T15:35:17;12.20;99.90
53114;DHT22;39009;53.166;6.232;2022-09-28T15:37:45;12.20;99.90
53114;DHT22;39009;53.166;6.232;2022-09-28T15:40:14;12.20;99.90
53114;DHT22;39009;53.166;6.232;2022-09-28T15:42:41;12.20;99.90
53114;DHT22;39009;53.166;6.232;2022-09-28T15:47:39;12.20;99.90
53114;DHT22;39009;53.166;6.232;2022-09-28T15:50:06;12.20;99.90
53114;DHT22;39009;53.166;6.232;2022-09-28T15:52:44;12.20;99.90
53114;DHT22;39009;53.166;6.232;2022-09-28T15:55:19;12.10;99.90
53114;DHT22;39009;53.166;6.232;2022-09-28T15:57:45;12.10;99.90
53114;DHT22;39009;53.166;6.232;2022-09-28T16:00:22;12.00;99.90
53114;DHT22;39009;53.166;6.232;2022-09-28T16:02:57;11.90;99.90
53114;DHT22;39009;53.166;6.232;2022-09-28T16:05:40;11.80;99.90
53114;DHT22;39009;53.166;6.232;2022-09-28T16:08:11;11.70;99.90
53114;DHT22;39009;53.166;6.232;2022-09-28T16:10:38;11.60;99.90
53114;DHT22;39009;53.166;6.232;2022-09-28T16:13:17;11.50;99.90
53114;DHT22;39009;53.166;6.232;2022-09-28T16:15:44;11.40;99.90
53114;DHT22;39009;53.166;6.232;2022-09-28T16:20:38;11.20;99.90
53114;DHT22;39009;53.166;6.232;2022-09-28T16:25:33;11.10;99.90
53114;DHT22;39009;53.166;6.232;2022-09-28T16:28:01;11.00;99.90
53114;DHT22;39009;53.166;6.232;2022-09-28T16:30:28;11.00;99.90
53114;DHT22;39009;53.166;6.232;2022-09-28T16:32:55;11.00;99.90
53114;DHT22;39009;53.166;6.232;2022-09-28T16:35:23;10.90;99.90
53114;DHT22;39009;53.166;6.232;2022-09-28T16:37:58;10.90;99.90
53114;DHT22;39009;53.166;6.232;2022-09-28T16:40:24;10.80;99.90
53114;DHT22;39009;53.166;6.232;2022-09-28T16:42:50;10.70;99.90
53114;DHT22;39009;53.166;6.232;2022-09-28T16:45:17;10.60;99.90
53114;DHT22;39009;53.166;6.232;2022-09-28T16:47:44;10.60;99.90
53114;DHT22;39009;53.166;6.232;2022-09-28T16:50:18;10.60;99.90
53114;DHT22;39009;53.166;6.232;2022-09-28T16:52:44;10.50;99.90
53114;DHT22;39009;53.166;6.232;2022-09-28T16:55:29;10.50;99.90
53114;DHT22;39009;53.166;6.232;2022-09-28T16:57:55;10.50;99.90
53114;DHT22;39009;53.166;6.232;2022-09-28T17:00:22;10.40;99.90
53114;DHT22;39009;53.166;6.232;2022-09-28T17:02:48;10.40;99.90
53114;DHT22;39009;53.166;6.232;2022-09-28T17:05:15;10.30;99.90
53114;DHT22;39009;53.166;6.232;2022-09-28T17:07:41;10.20;99.90
53114;DHT22;39009;53.166;6.232;2022-09-28T17:10:13;10.10;99.90
53114;DHT22;39009;53.166;6.232;2022-09-28T17:12:40;10.00;99.90
53114;DHT22;39009;53.166;6.232;2022-09-28T17:15:06;9.90;99.90
53114;DHT22;39009;53.166;6.232;2022-09-28T17:17:31;9.90;99.90
53114;DHT22;39009;53.166;6.232;2022-09-28T17:19:57;9.90;99.90
53114;DHT22;39009;53.166;6.232;2022-09-28T17:22:23;9.90;99.90
53114;DHT22;39009;53.166;6.232;2022-09-28T17:24:48;9.80;99.90
53114;DHT22;39009;53.166;6.232;2022-09-28T17:27:15;9.80;99.90
53114;DHT22;39009;53.166;6.232;2022-09-28T17:29:41;9.40;99.90
53114;DHT22;39009;53.166;6.232;2022-09-28T17:32:11;9.70;99.90
53114;DHT22;39009;53.166;6.232;2022-09-28T17:34:41;9.60;99.90
53114;DHT22;39009;53.166;6.232;2022-09-28T17:37:08;9.60;99.90
53114;DHT22;39009;53.166;6.232;2022-09-28T17:39:34;9.50;99.90